createdAt,value
2018-09-20T00:00:51.285Z,360.00
2018-09-20T00:01:51.311Z,364.00
2018-09-20T00:03:45.100Z,364.00
2018-09-20T00:04:44.234Z,364.00
2018-09-20T00:06:37.150Z,368.00
2018-09-20T00:07:37.168Z,376.00
2018-09-20T00:09:30.346Z,352.00
2018-09-20T00:10:30.101Z,352.00
2018-09-20T00:12:23.029Z,356.00
2018-09-20T00:13:23.076Z,360.00
2018-09-20T00:15:16.589Z,352.00
2018-09-20T00:16:15.991Z,368.00
2018-09-20T00:18:08.923Z,384.00
2018-09-20T00:19:08.923Z,376.00
2018-09-20T00:21:02.131Z,388.00
2018-09-20T00:22:01.883Z,392.00
2018-09-20T00:23:54.782Z,412.00
2018-09-20T00:24:54.822Z,420.00
2018-09-20T00:26:48.009Z,452.00
2018-09-20T00:27:47.741Z,468.00
2018-09-20T00:29:40.658Z,480.00
2018-09-20T00:30:40.687Z,520.00
2018-09-20T00:32:33.913Z,520.00
2018-09-20T00:33:33.623Z,536.00
2018-09-20T00:35:26.526Z,612.00
2018-09-20T00:36:26.551Z,608.00
2018-09-20T00:38:19.773Z,596.00
2018-09-20T00:39:19.490Z,552.00
2018-09-20T00:41:12.406Z,476.00
2018-09-20T00:42:12.436Z,464.00
2018-09-20T00:44:05.643Z,476.00
2018-09-20T00:45:05.356Z,488.00
2018-09-20T00:46:58.270Z,484.00
2018-09-20T00:47:58.277Z,496.00
2018-09-20T00:49:51.471Z,460.00
2018-09-20T00:50:51.222Z,476.00
2018-09-20T00:52:44.256Z,500.00
2018-09-20T00:53:44.153Z,544.00
2018-09-20T00:55:37.131Z,632.00
2018-09-20T00:56:37.094Z,668.00
2018-09-20T00:58:30.023Z,656.00
2018-09-20T00:59:30.032Z,648.00
2018-09-20T01:01:23.239Z,608.00
2018-09-20T01:02:22.981Z,612.00
2018-09-20T01:05:29.676Z,604.00
2018-09-20T01:06:22.565Z,584.00
2018-09-20T01:08:15.738Z,572.00
2018-09-20T01:09:15.494Z,572.00
2018-09-20T01:11:08.413Z,624.00
2018-09-20T01:12:08.417Z,688.00
2018-09-20T01:14:01.627Z,804.00
2018-09-20T01:15:01.369Z,820.00
2018-09-20T01:16:54.271Z,892.00
2018-09-20T01:17:54.302Z,948.00
2018-09-20T01:19:47.535Z,1000.00
2018-09-20T01:20:47.238Z,1004.00
2018-09-20T01:22:40.145Z,948.00
2018-09-20T01:23:40.151Z,916.00
2018-09-20T01:25:33.359Z,908.00
2018-09-20T01:26:33.085Z,908.00
2018-09-20T01:28:26.025Z,888.00
2018-09-20T01:29:26.021Z,848.00
2018-09-20T01:31:19.239Z,768.00
2018-09-20T01:32:18.987Z,808.00
2018-09-20T01:34:11.887Z,788.00
2018-09-20T01:35:11.892Z,748.00
2018-09-20T01:37:05.115Z,692.00
2018-09-20T01:38:04.839Z,632.00
2018-09-20T01:39:57.777Z,628.00
2018-09-20T01:40:57.783Z,648.00
2018-09-20T01:42:51.021Z,784.00
2018-09-20T01:43:50.710Z,820.00
2018-09-20T01:45:43.632Z,748.00
2018-09-20T01:46:43.661Z,728.00
2018-09-20T01:48:36.882Z,824.00
2018-09-20T01:49:36.581Z,856.00
2018-09-20T01:51:29.497Z,940.00
2018-09-20T01:52:29.532Z,956.00
2018-09-20T01:54:22.705Z,1028.00
2018-09-20T01:55:22.465Z,1032.00
2018-09-20T01:57:15.377Z,1004.00
2018-09-20T01:58:15.409Z,1060.00
2018-09-20T02:00:08.361Z,1172.00
2018-09-20T02:01:08.333Z,1196.00
2018-09-20T02:03:01.253Z,1176.00
2018-09-20T02:04:01.279Z,1180.00
2018-09-20T02:05:54.507Z,1196.00
2018-09-20T02:06:54.213Z,1128.00
2018-09-20T02:08:47.170Z,1096.00
2018-09-20T02:09:47.167Z,1088.00
2018-09-20T02:11:40.443Z,1064.00
2018-09-20T02:12:40.102Z,1040.00
2018-09-20T02:14:33.008Z,1016.00
2018-09-20T02:15:33.102Z,1032.00
2018-09-20T02:17:26.005Z,1020.00
2018-09-20T02:18:25.976Z,964.00
2018-09-20T02:20:18.900Z,844.00
2018-09-20T02:21:18.904Z,840.00
2018-09-20T02:23:11.915Z,868.00
2018-09-20T02:24:11.856Z,892.00
2018-09-20T02:26:04.763Z,1028.00
2018-09-20T02:27:04.794Z,1012.00
2018-09-20T02:28:57.796Z,1032.00
2018-09-20T02:29:57.720Z,1016.00
2018-09-20T02:31:50.637Z,880.00
2018-09-20T02:32:50.676Z,868.00
2018-09-20T02:34:43.889Z,916.00
2018-09-20T02:35:43.598Z,932.00
2018-09-20T02:37:37.095Z,972.00
2018-09-20T02:38:36.549Z,1000.00
2018-09-20T02:40:29.546Z,1080.00
2018-09-20T02:41:29.474Z,1100.00
2018-09-20T02:43:22.413Z,1052.00
2018-09-20T02:44:22.402Z,1036.00
2018-09-20T02:46:15.375Z,1032.00
2018-09-20T02:47:15.387Z,1016.00
2018-09-20T02:49:08.285Z,1020.00
2018-09-20T02:50:08.280Z,992.00
2018-09-20T02:52:01.351Z,1004.00
2018-09-20T02:53:01.230Z,1028.00
2018-09-20T02:54:54.155Z,1096.00
2018-09-20T02:55:54.172Z,1140.00
2018-09-20T02:57:47.367Z,1152.00
2018-09-20T02:58:47.153Z,1192.00
2018-09-20T03:00:40.045Z,1120.00
2018-09-20T03:01:40.063Z,1196.00
2018-09-20T03:03:33.253Z,1316.00
2018-09-20T03:04:32.984Z,1356.00
2018-09-20T03:06:25.896Z,1300.00
2018-09-20T03:07:25.924Z,1172.00
2018-09-20T03:09:19.135Z,1036.00
2018-09-20T03:10:18.861Z,1016.00
2018-09-20T03:12:11.888Z,1020.00
2018-09-20T03:13:11.901Z,1036.00
2018-09-20T03:15:05.104Z,964.00
2018-09-20T03:16:04.853Z,988.00
2018-09-20T03:17:57.957Z,1060.00
2018-09-20T03:18:57.981Z,1080.00
2018-09-20T03:20:51.214Z,1024.00
2018-09-20T03:21:50.925Z,940.00
2018-09-20T03:23:43.838Z,844.00
2018-09-20T03:24:43.847Z,904.00
2018-09-20T03:26:37.035Z,1064.00
2018-09-20T03:27:36.798Z,1048.00
2018-09-20T03:29:30.270Z,1124.00
2018-09-20T03:30:29.797Z,1120.00
2018-09-20T03:32:22.934Z,1132.00
2018-09-20T03:33:22.674Z,1060.00
2018-09-20T03:35:15.583Z,1016.00
2018-09-20T03:36:15.603Z,1052.00
2018-09-20T03:38:08.809Z,1204.00
2018-09-20T03:39:08.577Z,1164.00
2018-09-20T03:41:01.480Z,1204.00
2018-09-20T03:42:01.483Z,1212.00
2018-09-20T03:43:54.703Z,1164.00
2018-09-20T03:44:54.422Z,1156.00
2018-09-20T03:46:47.344Z,1208.00
2018-09-20T03:47:47.360Z,1212.00
2018-09-20T03:49:40.719Z,1196.00
2018-09-20T03:50:40.403Z,1204.00
2018-09-20T03:52:33.327Z,1232.00
2018-09-20T03:53:33.340Z,1252.00
2018-09-20T03:55:26.526Z,1300.00
2018-09-20T03:56:26.279Z,1292.00
2018-09-20T03:58:19.208Z,1248.00
2018-09-20T03:59:19.260Z,1256.00
2018-09-20T04:01:12.464Z,1308.00
2018-09-20T04:02:12.180Z,1368.00
2018-09-20T04:04:05.094Z,1252.00
2018-09-20T04:05:05.119Z,1204.00
2018-09-20T04:06:58.360Z,1184.00
2018-09-20T04:07:58.046Z,1192.00
2018-09-20T04:09:51.069Z,1196.00
2018-09-20T04:10:50.989Z,1220.00
2018-09-20T04:12:44.164Z,1280.00
2018-09-20T04:13:43.921Z,1280.00
2018-09-20T04:15:36.834Z,1232.00
2018-09-20T04:16:36.862Z,1196.00
2018-09-20T04:18:30.057Z,1232.00
2018-09-20T04:19:29.802Z,1272.00
2018-09-20T04:21:22.790Z,1416.00
2018-09-20T04:22:22.764Z,1408.00
2018-09-20T04:24:15.759Z,1356.00
2018-09-20T04:25:15.704Z,1340.00
2018-09-20T04:27:08.608Z,1364.00
2018-09-20T04:28:08.665Z,1368.00
2018-09-20T04:30:01.647Z,1400.00
2018-09-20T04:31:01.618Z,1416.00
2018-09-20T04:32:54.511Z,1464.00
2018-09-20T04:33:54.547Z,1484.00
2018-09-20T04:35:47.775Z,1408.00
2018-09-20T04:36:47.484Z,1420.00
2018-09-20T04:38:40.405Z,1484.00
2018-09-20T04:39:40.412Z,1464.00
2018-09-20T04:41:33.625Z,1440.00
2018-09-20T04:42:33.362Z,1444.00
2018-09-20T04:44:26.345Z,1448.00
2018-09-20T04:45:26.339Z,1480.00
2018-09-20T04:47:19.503Z,1520.00
2018-09-20T04:48:19.258Z,1452.00
2018-09-20T04:50:12.178Z,1296.00
2018-09-20T04:51:12.170Z,1248.00
2018-09-20T04:53:05.415Z,1272.00
2018-09-20T04:54:05.144Z,1300.00
2018-09-20T04:55:58.038Z,1392.00
2018-09-20T04:56:58.072Z,1432.00
2018-09-20T04:58:51.637Z,1472.00
2018-09-20T04:59:51.124Z,1420.00
2018-09-20T05:01:44.558Z,1444.00
2018-09-20T05:02:44.026Z,1400.00
2018-09-20T05:04:37.194Z,1360.00
2018-09-20T05:05:36.954Z,1376.00
2018-09-20T05:07:29.912Z,1424.00
2018-09-20T05:08:29.883Z,1424.00
2018-09-20T05:10:23.105Z,1392.00
2018-09-20T05:11:22.863Z,1384.00
2018-09-20T05:13:15.801Z,1432.00
2018-09-20T05:14:15.784Z,1480.00
2018-09-20T05:16:08.951Z,1564.00
2018-09-20T05:17:08.740Z,1612.00
2018-09-20T05:19:01.664Z,1640.00
2018-09-20T05:20:01.671Z,1628.00
2018-09-20T05:21:54.972Z,1576.00
2018-09-20T05:22:54.600Z,1580.00
2018-09-20T05:24:47.521Z,1540.00
2018-09-20T05:25:47.538Z,1520.00
2018-09-20T05:27:40.526Z,1552.00
2018-09-20T05:28:40.482Z,1528.00
2018-09-20T05:30:33.399Z,1524.00
2018-09-20T05:31:33.435Z,1528.00
2018-09-20T05:33:26.401Z,1560.00
2018-09-20T05:34:26.348Z,1580.00
2018-09-20T05:36:19.302Z,1680.00
2018-09-20T05:37:19.304Z,1716.00
2018-09-20T05:39:12.293Z,1724.00
2018-09-20T05:40:12.262Z,1732.00
2018-09-20T05:42:05.159Z,1800.00
2018-09-20T05:43:05.208Z,1820.00
2018-09-20T05:44:58.393Z,1864.00
2018-09-20T05:45:58.147Z,1912.00
2018-09-20T05:47:51.071Z,1880.00
2018-09-20T05:48:51.077Z,1832.00
2018-09-20T05:50:44.858Z,1832.00
2018-09-20T05:51:44.022Z,1856.00
2018-09-20T05:53:36.967Z,1852.00
2018-09-20T05:54:36.982Z,1840.00
2018-09-20T05:56:30.172Z,1844.00
2018-09-20T05:57:29.911Z,1824.00
2018-09-20T05:59:22.904Z,1772.00
2018-09-20T06:00:22.865Z,1756.00
2018-09-20T06:02:16.063Z,1716.00
2018-09-20T06:03:15.806Z,1712.00
2018-09-20T06:05:08.713Z,1680.00
2018-09-20T06:06:08.748Z,1644.00
2018-09-20T06:08:02.286Z,1624.00
2018-09-20T06:09:01.677Z,1620.00
2018-09-20T06:10:54.601Z,1696.00
2018-09-20T06:11:54.640Z,1692.00
2018-09-20T06:13:48.834Z,1700.00
2018-09-20T06:14:48.565Z,1736.00
2018-09-20T06:16:41.473Z,1908.00
2018-09-20T06:17:41.508Z,1920.00
2018-09-20T06:19:34.931Z,1916.00
2018-09-20T06:20:34.644Z,1928.00
2018-09-20T06:22:28.318Z,1956.00
2018-09-20T06:23:28.319Z,1956.00
2018-09-20T06:25:21.348Z,1992.00
2018-09-20T06:26:20.545Z,1992.00
2018-09-20T06:28:13.443Z,1992.00
2018-09-20T06:29:13.463Z,1988.00
2018-09-20T06:31:06.864Z,2028.00
2018-09-20T06:32:06.599Z,2064.00
2018-09-20T06:33:59.524Z,2108.00
2018-09-20T06:34:59.582Z,2124.00
2018-09-20T06:36:52.831Z,2160.00
2018-09-20T06:37:52.486Z,2152.00
2018-09-20T06:39:45.415Z,2092.00
2018-09-20T06:40:45.434Z,2064.00
2018-09-20T06:42:38.656Z,2036.00
2018-09-20T06:43:38.377Z,2032.00
2018-09-20T06:45:31.317Z,2016.00
2018-09-20T06:46:31.329Z,2068.00
2018-09-20T06:48:24.311Z,2128.00
2018-09-20T06:49:24.296Z,2152.00
2018-09-20T06:51:17.206Z,2144.00
2018-09-20T06:52:17.225Z,2232.00
2018-09-20T06:54:10.452Z,2276.00
2018-09-20T06:55:10.146Z,2284.00
2018-09-20T06:57:03.088Z,2260.00
2018-09-20T06:58:03.103Z,2244.00
2018-09-20T06:59:56.338Z,2112.00
2018-09-20T07:00:56.100Z,2108.00
2018-09-20T07:02:49.090Z,2116.00
2018-09-20T07:03:49.036Z,2108.00
2018-09-20T07:05:42.286Z,2044.00
2018-09-20T07:06:41.967Z,2060.00
2018-09-20T07:08:34.899Z,2168.00
2018-09-20T07:09:34.906Z,2184.00
2018-09-20T07:11:28.186Z,2192.00
2018-09-20T07:12:27.963Z,2292.00
2018-09-20T07:14:20.786Z,2536.00
2018-09-20T07:15:20.805Z,2624.00
2018-09-20T07:17:13.782Z,2652.00
2018-09-20T07:18:13.751Z,2684.00
2018-09-20T07:20:06.674Z,2612.00
2018-09-20T07:21:06.708Z,2544.00
2018-09-20T07:22:59.920Z,2488.00
2018-09-20T07:23:59.626Z,2500.00
2018-09-20T07:25:52.577Z,2548.00
2018-09-20T07:26:52.585Z,2624.00
2018-09-20T07:28:45.575Z,2744.00
2018-09-20T07:29:45.529Z,2752.00
2018-09-20T07:31:38.439Z,2768.00
2018-09-20T07:32:38.547Z,2704.00
2018-09-20T07:34:31.734Z,2696.00
2018-09-20T07:35:31.407Z,2796.00
2018-09-20T07:37:24.350Z,2972.00
2018-09-20T07:38:24.366Z,2936.00
2018-09-20T07:40:17.599Z,3064.00
2018-09-20T07:41:17.288Z,3084.00
2018-09-20T07:43:10.226Z,3056.00
2018-09-20T07:44:10.244Z,3048.00
2018-09-20T07:46:03.479Z,3020.00
2018-09-20T07:47:03.194Z,2980.00
2018-09-20T07:48:56.133Z,3016.00
2018-09-20T07:49:56.136Z,3064.00
2018-09-20T07:51:49.153Z,3100.00
2018-09-20T07:52:49.078Z,2852.00
2018-09-20T07:54:42.014Z,2960.00
2018-09-20T07:55:42.036Z,3012.00
2018-09-20T07:57:34.990Z,2972.00
2018-09-20T07:58:34.964Z,2792.00
2018-09-20T08:00:27.892Z,2800.00
2018-09-20T08:01:27.930Z,2808.00
2018-09-20T08:03:21.135Z,3056.00
2018-09-20T08:04:20.866Z,3232.00
2018-09-20T08:06:13.850Z,3136.00
2018-09-20T08:07:13.941Z,3096.00
2018-09-20T08:09:07.070Z,3116.00
2018-09-20T08:10:06.760Z,3112.00
2018-09-20T08:11:59.699Z,3092.00
2018-09-20T08:12:59.769Z,3112.00
2018-09-20T08:14:52.920Z,3216.00
2018-09-20T08:15:52.712Z,3296.00
2018-09-20T08:17:45.576Z,3540.00
2018-09-20T08:18:45.609Z,7344.00
2018-09-20T08:20:38.869Z,14816.00
2018-09-20T08:21:38.625Z,18176.00
2018-09-20T08:23:31.514Z,15136.00
2018-09-20T08:24:31.551Z,9048.00
2018-09-20T08:26:24.778Z,13792.00
2018-09-20T08:27:24.484Z,19424.00
2018-09-20T08:29:17.409Z,24416.00
2018-09-20T08:30:17.443Z,24896.00
2018-09-20T08:32:10.664Z,14368.00
2018-09-20T08:33:10.391Z,14272.00
2018-09-20T08:35:03.385Z,30688.00
2018-09-20T08:36:03.333Z,25024.00
2018-09-20T08:37:56.597Z,21984.00
2018-09-20T08:38:56.305Z,27328.00
2018-09-20T08:40:49.228Z,27776.00
2018-09-20T08:41:49.237Z,26176.00
2018-09-20T08:43:42.523Z,25216.00
2018-09-20T08:44:42.258Z,17280.00
2018-09-20T08:46:35.151Z,3820.00
2018-09-20T08:47:35.184Z,3308.00
2018-09-20T08:49:28.411Z,3216.00
2018-09-20T08:50:28.138Z,3168.00
2018-09-20T08:52:21.060Z,3112.00
2018-09-20T08:53:21.081Z,3124.00
2018-09-20T08:55:14.355Z,3092.00
2018-09-20T08:56:14.096Z,4188.00
2018-09-20T08:58:07.113Z,23104.00
2018-09-20T08:59:07.119Z,24736.00
2018-09-20T09:01:00.381Z,12448.00
2018-09-20T09:02:00.146Z,4904.00
2018-09-20T09:03:53.127Z,2864.00
2018-09-20T09:04:53.143Z,2824.00
2018-09-20T09:06:46.370Z,3800.00
2018-09-20T09:07:46.101Z,2600.00
2018-09-20T09:09:39.086Z,2416.00
2018-09-20T09:10:39.097Z,2332.00
2018-09-20T09:12:32.387Z,2492.00
2018-09-20T09:13:32.126Z,2416.00
2018-09-20T09:15:25.113Z,2392.00
2018-09-20T09:16:25.136Z,2368.00
2018-09-20T09:18:18.367Z,2364.00
2018-09-20T09:19:18.152Z,2272.00
2018-09-20T09:21:11.127Z,2140.00
2018-09-20T09:22:11.148Z,2080.00
2018-09-20T09:24:04.207Z,1988.00
2018-09-20T09:25:04.158Z,1952.00
2018-09-20T09:26:57.095Z,1960.00
2018-09-20T09:27:57.115Z,1956.00
2018-09-20T09:29:50.339Z,1876.00
2018-09-20T09:30:50.111Z,1844.00
2018-09-20T09:32:43.092Z,1788.00
2018-09-20T09:33:43.140Z,1744.00
2018-09-20T09:35:36.165Z,1652.00
2018-09-20T09:36:36.141Z,1608.00
2018-09-20T09:38:29.103Z,1552.00
2018-09-20T09:39:29.133Z,1536.00
2018-09-20T09:41:22.440Z,1476.00
2018-09-20T09:42:22.187Z,1440.00
2018-09-20T09:44:15.152Z,3444.00
2018-09-20T09:45:15.171Z,4624.00
2018-09-20T09:47:08.404Z,1428.00
2018-09-20T09:48:08.125Z,2796.00
2018-09-20T09:50:01.102Z,1944.00
2018-09-20T09:51:01.121Z,2720.00
2018-09-20T09:52:54.159Z,2984.00
2018-09-20T09:53:54.139Z,1644.00
2018-09-20T09:55:47.063Z,1216.00
2018-09-20T09:56:47.094Z,1440.00
2018-09-20T09:58:40.333Z,1628.00
2018-09-20T09:59:40.136Z,1512.00
2018-09-20T10:01:33.095Z,1812.00
2018-09-20T10:02:33.119Z,1160.00
2018-09-20T10:04:26.324Z,900.00
2018-09-20T10:05:26.100Z,864.00
2018-09-20T10:07:19.201Z,816.00
2018-09-20T10:08:19.092Z,780.00
2018-09-20T10:10:12.131Z,716.00
2018-09-20T10:11:12.109Z,684.00
2018-09-20T10:13:05.035Z,640.00
2018-09-20T10:14:05.063Z,612.00
2018-09-20T10:15:58.240Z,572.00
2018-09-20T10:16:57.996Z,548.00
2018-09-20T10:18:50.995Z,508.00
2018-09-20T10:19:51.021Z,496.00
2018-09-20T10:21:44.292Z,452.00
2018-09-20T10:22:44.021Z,428.00
2018-09-20T10:24:36.988Z,388.00
2018-09-20T10:25:37.011Z,372.00
2018-09-20T10:27:30.272Z,340.00
2018-09-20T10:28:30.028Z,324.00
2018-09-20T10:30:23.006Z,288.00
2018-09-20T10:31:23.086Z,276.00
2018-09-20T10:33:16.308Z,244.00
2018-09-20T10:34:16.019Z,232.00
2018-09-20T10:36:09.027Z,208.00
2018-09-20T10:37:09.011Z,196.00
2018-09-20T10:39:02.097Z,172.00
2018-09-20T10:40:02.053Z,160.00
2018-09-20T10:41:55.008Z,136.00
2018-09-20T10:42:55.054Z,120.00
2018-09-20T10:44:48.365Z,96.00
2018-09-20T10:45:48.053Z,84.00
2018-09-20T10:47:41.083Z,68.00
2018-09-20T10:48:41.042Z,64.00
2018-09-20T10:50:34.083Z,56.00
2018-09-20T10:51:34.047Z,48.00
2018-09-20T10:53:27.042Z,44.00
2018-09-20T10:54:27.064Z,24.00
2018-09-20T10:56:20.274Z,24.00
2018-09-20T10:57:20.041Z,20.00
2018-09-20T10:59:13.051Z,16.00
2018-09-20T11:00:13.056Z,16.00
2018-09-20T11:02:06.353Z,8.00
2018-09-20T11:03:06.075Z,8.00
2018-09-20T11:04:59.073Z,4.00
2018-09-20T11:05:59.089Z,4.00
2018-09-20T11:07:52.182Z,4.00
2018-09-20T11:08:52.096Z,0.00
2018-09-20T11:10:45.180Z,0.00
2018-09-20T11:11:45.102Z,0.00
2018-09-20T11:13:38.155Z,0.00
2018-09-20T11:14:38.121Z,0.00
2018-09-20T11:16:31.109Z,0.00
2018-09-20T11:17:31.121Z,4.00
2018-09-20T11:19:24.368Z,0.00
2018-09-20T11:20:24.099Z,0.00
2018-09-20T11:22:17.118Z,0.00
2018-09-20T11:23:17.117Z,0.00
2018-09-20T11:25:10.411Z,0.00
2018-09-20T11:26:10.118Z,0.00
2018-09-20T11:28:03.115Z,0.00
2018-09-20T11:29:03.155Z,0.00
2018-09-20T11:30:56.172Z,0.00
2018-09-20T11:31:56.135Z,0.00
2018-09-20T11:33:49.132Z,0.00
2018-09-20T11:34:49.144Z,0.00
2018-09-20T11:36:42.451Z,4.00
2018-09-20T11:37:42.147Z,0.00
2018-09-20T11:39:35.130Z,4.00
2018-09-20T11:40:35.151Z,0.00
2018-09-20T11:42:28.415Z,0.00
2018-09-20T11:43:28.120Z,0.00
2018-09-20T11:45:21.110Z,0.00
2018-09-20T11:46:21.133Z,0.00
2018-09-20T11:48:14.380Z,4.00
2018-09-20T11:49:14.135Z,4.00
2018-09-20T11:51:07.108Z,4.00
2018-09-20T11:52:07.152Z,0.00
2018-09-20T11:54:00.447Z,4.00
2018-09-20T11:55:00.153Z,0.00
2018-09-20T11:56:53.633Z,0.00
2018-09-20T11:57:53.138Z,0.00
2018-09-20T11:59:46.674Z,0.00
2018-09-20T12:00:46.154Z,0.00
2018-09-20T12:02:39.121Z,0.00
2018-09-20T12:03:39.136Z,0.00
2018-09-20T12:05:32.388Z,0.00
2018-09-20T12:06:32.151Z,0.00
2018-09-20T12:08:25.116Z,0.00
2018-09-20T12:09:25.145Z,0.00
2018-09-20T12:11:18.432Z,0.00
2018-09-20T12:12:18.156Z,0.00
2018-09-20T12:14:11.133Z,0.00
2018-09-20T12:15:11.154Z,0.00
2018-09-20T12:17:04.211Z,0.00
2018-09-20T12:18:04.165Z,0.00
2018-09-20T12:19:57.159Z,0.00
2018-09-20T12:20:57.157Z,0.00
2018-09-20T12:22:50.209Z,0.00
2018-09-20T12:23:50.179Z,0.00
2018-09-20T12:25:43.162Z,0.00
2018-09-20T12:26:43.208Z,0.00
2018-09-20T12:28:36.458Z,0.00
2018-09-20T12:29:36.177Z,0.00
2018-09-20T12:31:29.167Z,0.00
2018-09-20T12:32:29.167Z,0.00
2018-09-20T12:34:22.447Z,0.00
2018-09-20T12:35:22.229Z,0.00
2018-09-20T12:37:15.157Z,0.00
2018-09-20T12:38:15.262Z,0.00
2018-09-20T12:40:08.200Z,0.00
2018-09-20T12:41:08.175Z,0.00
2018-09-20T12:43:01.274Z,0.00
2018-09-20T12:44:01.176Z,0.00
2018-09-20T12:45:54.915Z,0.00
2018-09-20T12:46:54.222Z,0.00
2018-09-20T12:48:47.166Z,0.00
2018-09-20T12:49:47.187Z,0.00
2018-09-20T12:51:41.027Z,0.00
2018-09-20T12:52:40.252Z,0.00
2018-09-20T12:54:33.275Z,0.00
2018-09-20T12:55:33.224Z,0.00
2018-09-20T12:57:26.277Z,0.00
2018-09-20T12:58:26.249Z,0.00
2018-09-20T13:00:19.224Z,0.00
2018-09-20T13:01:19.253Z,0.00
2018-09-20T13:03:13.020Z,0.00
2018-09-20T13:04:12.239Z,0.00
2018-09-20T13:06:05.231Z,0.00
2018-09-20T13:07:05.243Z,0.00
2018-09-20T13:08:58.573Z,0.00
2018-09-20T13:09:58.265Z,0.00
2018-09-20T13:11:51.248Z,0.00
2018-09-20T13:12:51.278Z,0.00
2018-09-20T13:14:44.520Z,0.00
2018-09-20T13:15:44.299Z,0.00
2018-09-20T13:17:37.255Z,0.00
2018-09-20T13:18:37.283Z,0.00
2018-09-20T13:20:30.647Z,0.00
2018-09-20T13:21:30.324Z,0.00
2018-09-20T13:23:23.274Z,0.00
2018-09-20T13:24:23.292Z,0.00
2018-09-20T13:26:16.329Z,0.00
2018-09-20T13:27:16.278Z,0.00
2018-09-20T13:29:09.259Z,0.00
2018-09-20T13:30:09.292Z,0.00
2018-09-20T13:32:02.332Z,0.00
2018-09-20T13:33:02.290Z,0.00
2018-09-20T13:34:55.267Z,0.00
2018-09-20T13:35:55.269Z,0.00
2018-09-20T13:37:48.603Z,0.00
2018-09-20T13:38:48.312Z,0.00
2018-09-20T13:40:41.333Z,0.00
2018-09-20T13:41:41.325Z,0.00
2018-09-20T13:43:34.663Z,0.00
2018-09-20T13:44:34.296Z,0.00
2018-09-20T13:46:27.288Z,0.00
2018-09-20T13:47:27.306Z,0.00
2018-09-20T13:49:20.629Z,0.00
2018-09-20T13:50:20.324Z,0.00
2018-09-20T13:52:13.299Z,0.00
2018-09-20T13:53:13.304Z,0.00
2018-09-20T13:55:06.349Z,0.00
2018-09-20T13:56:06.316Z,0.00
2018-09-20T13:57:59.347Z,0.00
2018-09-20T13:58:59.302Z,0.00
2018-09-20T14:00:52.627Z,0.00
2018-09-20T14:01:52.315Z,0.00
2018-09-20T14:03:45.323Z,0.00
2018-09-20T14:04:45.288Z,0.00
2018-09-20T14:06:38.639Z,0.00
2018-09-20T14:07:38.283Z,0.00
2018-09-20T14:09:31.288Z,0.00
2018-09-20T14:10:31.319Z,0.00
2018-09-20T14:12:24.583Z,0.00
2018-09-20T14:13:24.317Z,0.00
2018-09-20T14:15:17.338Z,0.00
2018-09-20T14:16:17.310Z,0.00
2018-09-20T14:18:10.443Z,0.00
2018-09-20T14:19:10.293Z,0.00
2018-09-20T14:21:03.776Z,0.00
2018-09-20T14:22:03.295Z,0.00
2018-09-20T14:23:56.544Z,0.00
2018-09-20T14:24:56.307Z,0.00
2018-09-20T14:26:49.301Z,0.00
2018-09-20T14:27:49.290Z,0.00
2018-09-20T14:29:42.662Z,0.00
2018-09-20T14:30:42.278Z,0.00
2018-09-20T14:32:35.289Z,0.00
2018-09-20T14:33:35.289Z,0.00
2018-09-20T14:35:28.536Z,0.00
2018-09-20T14:36:28.297Z,0.00
2018-09-20T14:38:21.262Z,0.00
2018-09-20T14:39:21.296Z,0.00
2018-09-20T14:41:14.575Z,0.00
2018-09-20T14:42:14.291Z,0.00
2018-09-20T14:44:07.270Z,0.00
2018-09-20T14:45:07.291Z,0.00
2018-09-20T14:47:00.551Z,0.00
2018-09-20T14:48:00.270Z,0.00
2018-09-20T14:49:53.248Z,0.00
2018-09-20T14:50:53.265Z,0.00
2018-09-20T14:52:46.595Z,0.00
2018-09-20T14:53:46.275Z,0.00
2018-09-20T14:55:39.245Z,0.00
2018-09-20T14:56:39.273Z,0.00
2018-09-20T14:58:32.524Z,0.00
2018-09-20T14:59:32.278Z,0.00
2018-09-20T15:01:25.240Z,0.00
2018-09-20T15:02:25.317Z,0.00
2018-09-20T15:04:18.596Z,0.00
2018-09-20T15:05:18.266Z,0.00
2018-09-20T15:07:11.248Z,0.00
2018-09-20T15:08:11.268Z,0.00
2018-09-20T15:10:04.574Z,0.00
2018-09-20T15:11:04.262Z,0.00
2018-09-20T15:12:57.249Z,0.00
2018-09-20T15:13:57.278Z,0.00
2018-09-20T15:15:50.544Z,0.00
2018-09-20T15:16:50.255Z,0.00
2018-09-20T15:18:43.932Z,0.00
2018-09-20T15:19:43.253Z,0.00
2018-09-20T15:21:36.319Z,0.00
2018-09-20T15:22:36.263Z,0.00
2018-09-20T15:24:29.276Z,0.00
2018-09-20T15:25:29.248Z,0.00
2018-09-20T15:27:22.525Z,0.00
2018-09-20T15:28:22.259Z,0.00
2018-09-20T15:30:15.231Z,0.00
2018-09-20T15:31:15.256Z,0.00
2018-09-20T15:33:08.494Z,0.00
2018-09-20T15:34:08.262Z,0.00
2018-09-20T15:36:01.228Z,0.00
2018-09-20T15:37:01.257Z,0.00
2018-09-20T15:38:55.037Z,0.00
2018-09-20T15:39:54.334Z,0.00
2018-09-20T15:41:47.207Z,0.00
2018-09-20T15:42:47.240Z,0.00
2018-09-20T15:44:40.530Z,0.00
2018-09-20T15:45:40.236Z,0.00
2018-09-20T15:47:33.209Z,0.00
2018-09-20T15:48:33.242Z,0.00
2018-09-20T15:50:26.477Z,0.00
2018-09-20T15:51:26.226Z,0.00
2018-09-20T15:53:19.209Z,0.00
2018-09-20T15:54:19.232Z,0.00
2018-09-20T15:56:12.464Z,0.00
2018-09-20T15:57:12.216Z,0.00
2018-09-20T15:59:05.200Z,0.00
2018-09-20T16:00:05.215Z,0.00
2018-09-20T16:01:58.460Z,0.00
2018-09-20T16:02:58.226Z,0.00
2018-09-20T16:04:51.186Z,0.00
2018-09-20T16:05:51.274Z,0.00
2018-09-20T16:07:44.529Z,0.00
2018-09-20T16:08:44.218Z,0.00
2018-09-20T16:10:37.187Z,0.00
2018-09-20T16:11:37.199Z,0.00
2018-09-20T16:13:30.457Z,0.00
2018-09-20T16:14:30.222Z,0.00
2018-09-20T16:16:23.236Z,0.00
2018-09-20T16:17:23.254Z,0.00
2018-09-20T16:19:16.481Z,0.00
2018-09-20T16:20:16.251Z,0.00
2018-09-20T16:22:09.217Z,0.00
2018-09-20T16:23:09.246Z,0.00
2018-09-20T16:25:02.468Z,0.00
2018-09-20T16:26:02.246Z,0.00
2018-09-20T16:27:55.196Z,0.00
2018-09-20T16:28:55.225Z,0.00
2018-09-20T16:30:48.546Z,0.00
2018-09-20T16:31:48.224Z,0.00
2018-09-20T16:33:41.208Z,0.00
2018-09-20T16:34:41.233Z,0.00
2018-09-20T16:36:34.272Z,0.00
2018-09-20T16:37:34.213Z,0.00
2018-09-20T16:39:27.210Z,0.00
2018-09-20T16:40:27.228Z,0.00
2018-09-20T16:42:20.519Z,0.00
2018-09-20T16:43:20.225Z,0.00
2018-09-20T16:45:13.211Z,0.00
2018-09-20T16:46:13.222Z,0.00
2018-09-20T16:48:06.455Z,0.00
2018-09-20T16:49:06.213Z,0.00
2018-09-20T16:50:59.195Z,0.00
2018-09-20T16:51:59.224Z,0.00
2018-09-20T16:53:52.445Z,0.00
2018-09-20T16:54:52.216Z,0.00
2018-09-20T16:56:45.698Z,0.00
2018-09-20T16:57:45.228Z,0.00
2018-09-20T16:59:38.260Z,0.00
2018-09-20T17:00:38.221Z,0.00
2018-09-20T17:02:31.180Z,0.00
2018-09-20T17:03:31.198Z,0.00
2018-09-20T17:05:24.487Z,0.00
2018-09-20T17:06:24.195Z,0.00
2018-09-20T17:08:17.190Z,0.00
2018-09-20T17:09:17.212Z,0.00
2018-09-20T17:11:10.449Z,0.00
2018-09-20T17:12:10.186Z,0.00
2018-09-20T17:14:03.197Z,0.00
2018-09-20T17:15:03.352Z,0.00
2018-09-20T17:16:56.460Z,0.00
2018-09-20T17:17:56.210Z,0.00
2018-09-20T17:19:49.189Z,0.00
2018-09-20T17:20:49.205Z,0.00
2018-09-20T17:22:42.426Z,0.00
2018-09-20T17:23:42.193Z,0.00
2018-09-20T17:25:35.683Z,0.00
2018-09-20T17:26:35.199Z,0.00
2018-09-20T17:28:28.498Z,0.00
2018-09-20T17:29:28.193Z,0.00
2018-09-20T17:31:21.174Z,0.00
2018-09-20T17:32:21.203Z,0.00
2018-09-20T17:34:14.427Z,0.00
2018-09-20T17:35:14.173Z,0.00
2018-09-20T17:37:07.649Z,0.00
2018-09-20T17:38:07.171Z,0.00
2018-09-20T17:40:00.419Z,0.00
2018-09-20T17:41:00.174Z,0.00
2018-09-20T17:42:53.161Z,0.00
2018-09-20T17:43:53.162Z,0.00
2018-09-20T17:45:46.182Z,0.00
2018-09-20T17:46:46.164Z,0.00
2018-09-20T17:48:39.155Z,0.00
2018-09-20T17:49:39.146Z,0.00
2018-09-20T17:51:32.413Z,0.00
2018-09-20T17:52:32.154Z,0.00
2018-09-20T17:54:25.212Z,0.00
2018-09-20T17:55:25.137Z,0.00
2018-09-20T17:57:18.429Z,0.00
2018-09-20T17:58:18.159Z,0.00
2018-09-20T18:00:11.140Z,0.00
2018-09-20T18:01:11.143Z,0.00
2018-09-20T18:03:04.502Z,0.00
2018-09-20T18:04:04.160Z,0.00
2018-09-20T18:05:57.624Z,0.00
2018-09-20T18:06:57.158Z,0.00
2018-09-20T18:08:50.408Z,0.00
2018-09-20T18:09:50.136Z,0.00
2018-09-20T18:11:43.105Z,0.00